sensor_id;sensor_type;location;lat;lon;timestamp;P1;durP1;ratioP1;P2;durP2;ratioP2
65996;SDS011;52765;52.258;21.052;2022-11-02T00:00:16;55.50;;;24.58;;
65996;SDS011;52765;52.258;21.052;2022-11-02T00:02:42;60.33;;;25.27;;
65996;SDS011;52765;52.258;21.052;2022-11-02T00:05:12;50.97;;;22.58;;
65996;SDS011;52765;52.258;21.052;2022-11-02T00:07:38;50.80;;;22.83;;
65996;SDS011;52765;52.258;21.052;2022-11-02T00:10:05;51.13;;;22.60;;
65996;SDS011;52765;52.258;21.052;2022-11-02T00:12:31;54.13;;;23.42;;
65996;SDS011;52765;52.258;21.052;2022-11-02T00:14:56;57.22;;;24.42;;
65996;SDS011;52765;52.258;21.052;2022-11-02T00:17:22;53.75;;;24.85;;
65996;SDS011;52765;52.258;21.052;2022-11-02T00:19:50;52.08;;;24.13;;
65996;SDS011;52765;52.258;21.052;2022-11-02T00:22:25;51.55;;;23.23;;
65996;SDS011;52765;52.258;21.052;2022-11-02T00:24:53;49.03;;;23.52;;
65996;SDS011;52765;52.258;21.052;2022-11-02T00:27:19;53.92;;;23.88;;
65996;SDS011;52765;52.258;21.052;2022-11-02T00:29:46;51.35;;;23.30;;
65996;SDS011;52765;52.258;21.052;2022-11-02T00:32:12;46.80;;;20.80;;
65996;SDS011;52765;52.258;21.052;2022-11-02T00:34:37;51.58;;;22.95;;
65996;SDS011;52765;52.258;21.052;2022-11-02T00:37:03;52.85;;;22.85;;
65996;SDS011;52765;52.258;21.052;2022-11-02T00:39:31;62.40;;;27.33;;
65996;SDS011;52765;52.258;21.052;2022-11-02T00:41:56;53.15;;;22.90;;
65996;SDS011;52765;52.258;21.052;2022-11-02T00:44:22;57.45;;;23.73;;
65996;SDS011;52765;52.258;21.052;2022-11-02T00:46:48;57.25;;;23.48;;
65996;SDS011;52765;52.258;21.052;2022-11-02T00:49:13;61.55;;;25.95;;
65996;SDS011;52765;52.258;21.052;2022-11-02T00:51:41;56.83;;;23.95;;
65996;SDS011;52765;52.258;21.052;2022-11-02T00:54:07;56.50;;;24.55;;
65996;SDS011;52765;52.258;21.052;2022-11-02T00:56:33;56.42;;;24.45;;
65996;SDS011;52765;52.258;21.052;2022-11-02T00:58:58;59.97;;;24.75;;
65996;SDS011;52765;52.258;21.052;2022-11-02T01:01:23;52.85;;;23.60;;
65996;SDS011;52765;52.258;21.052;2022-11-02T01:03:49;58.80;;;24.13;;
65996;SDS011;52765;52.258;21.052;2022-11-02T01:06:14;54.55;;;23.27;;
65996;SDS011;52765;52.258;21.052;2022-11-02T01:08:40;50.22;;;23.08;;
65996;SDS011;52765;52.258;21.052;2022-11-02T01:11:11;56.47;;;23.73;;
65996;SDS011;52765;52.258;21.052;2022-11-02T01:13:42;57.50;;;23.38;;
65996;SDS011;52765;52.258;21.052;2022-11-02T01:16:08;51.63;;;23.25;;
65996;SDS011;52765;52.258;21.052;2022-11-02T01:18:35;50.50;;;22.50;;
65996;SDS011;52765;52.258;21.052;2022-11-02T01:21:00;47.60;;;21.70;;
65996;SDS011;52765;52.258;21.052;2022-11-02T01:23:26;48.33;;;22.98;;
65996;SDS011;52765;52.258;21.052;2022-11-02T01:25:54;57.30;;;24.27;;
65996;SDS011;52765;52.258;21.052;2022-11-02T01:28:20;49.95;;;21.50;;
65996;SDS011;52765;52.258;21.052;2022-11-02T01:30:46;45.20;;;21.27;;
65996;SDS011;52765;52.258;21.052;2022-11-02T01:33:12;48.05;;;22.45;;
65996;SDS011;52765;52.258;21.052;2022-11-02T01:35:37;44.33;;;22.25;;
65996;SDS011;52765;52.258;21.052;2022-11-02T01:38:03;44.35;;;21.05;;
65996;SDS011;52765;52.258;21.052;2022-11-02T01:40:35;42.92;;;21.60;;
65996;SDS011;52765;52.258;21.052;2022-11-02T01:45:51;50.95;;;22.73;;
65996;SDS011;52765;52.258;21.052;2022-11-02T01:48:25;46.53;;;22.92;;
65996;SDS011;52765;52.258;21.052;2022-11-02T01:50:59;51.28;;;23.25;;
65996;SDS011;52765;52.258;21.052;2022-11-02T01:53:27;47.75;;;24.08;;
65996;SDS011;52765;52.258;21.052;2022-11-02T01:55:53;44.15;;;22.48;;
65996;SDS011;52765;52.258;21.052;2022-11-02T01:58:20;50.00;;;23.15;;
65996;SDS011;52765;52.258;21.052;2022-11-02T02:00:46;49.53;;;23.38;;
65996;SDS011;52765;52.258;21.052;2022-11-02T02:03:15;50.30;;;23.95;;
65996;SDS011;52765;52.258;21.052;2022-11-02T02:05:44;51.72;;;24.25;;
65996;SDS011;52765;52.258;21.052;2022-11-02T02:08:31;54.58;;;24.67;;
65996;SDS011;52765;52.258;21.052;2022-11-02T02:10:59;54.45;;;24.52;;
65996;SDS011;52765;52.258;21.052;2022-11-02T02:13:25;57.17;;;27.00;;
65996;SDS011;52765;52.258;21.052;2022-11-02T02:18:31;58.65;;;26.27;;
65996;SDS011;52765;52.258;21.052;2022-11-02T02:21:20;59.22;;;25.35;;
65996;SDS011;52765;52.258;21.052;2022-11-02T02:31:52;55.97;;;24.83;;
65996;SDS011;52765;52.258;21.052;2022-11-02T02:34:29;59.70;;;25.80;;
65996;SDS011;52765;52.258;21.052;2022-11-02T02:37:09;51.65;;;24.00;;
65996;SDS011;52765;52.258;21.052;2022-11-02T02:42:45;62.83;;;28.02;;
65996;SDS011;52765;52.258;21.052;2022-11-02T02:45:18;68.38;;;29.35;;
65996;SDS011;52765;52.258;21.052;2022-11-02T02:47:50;65.68;;;28.48;;
65996;SDS011;52765;52.258;21.052;2022-11-02T02:50:26;61.80;;;26.95;;
65996;SDS011;52765;52.258;21.052;2022-11-02T02:52:54;69.97;;;29.90;;
65996;SDS011;52765;52.258;21.052;2022-11-02T02:55:23;73.95;;;32.60;;
65996;SDS011;52765;52.258;21.052;2022-11-02T02:57:55;73.80;;;30.80;;
65996;SDS011;52765;52.258;21.052;2022-11-02T03:00:24;77.53;;;30.77;;
65996;SDS011;52765;52.258;21.052;2022-11-02T03:02:50;74.55;;;30.65;;
65996;SDS011;52765;52.258;21.052;2022-11-02T03:05:34;81.93;;;32.38;;
65996;SDS011;52765;52.258;21.052;2022-11-02T03:08:03;88.57;;;32.15;;
65996;SDS011;52765;52.258;21.052;2022-11-02T03:16:14;96.85;;;35.20;;
65996;SDS011;52765;52.258;21.052;2022-11-02T03:18:58;76.30;;;32.03;;
65996;SDS011;52765;52.258;21.052;2022-11-02T03:21:33;88.10;;;31.90;;
65996;SDS011;52765;52.258;21.052;2022-11-02T03:24:02;85.73;;;32.40;;
65996;SDS011;52765;52.258;21.052;2022-11-02T03:29:20;89.43;;;33.15;;
65996;SDS011;52765;52.258;21.052;2022-11-02T03:31:54;86.25;;;34.50;;
65996;SDS011;52765;52.258;21.052;2022-11-02T03:39:44;90.65;;;34.13;;
65996;SDS011;52765;52.258;21.052;2022-11-02T03:42:16;83.18;;;32.13;;
65996;SDS011;52765;52.258;21.052;2022-11-02T03:44:46;81.40;;;30.98;;
65996;SDS011;52765;52.258;21.052;2022-11-02T03:47:16;79.18;;;31.02;;
65996;SDS011;52765;52.258;21.052;2022-11-02T03:49:45;86.70;;;32.45;;
65996;SDS011;52765;52.258;21.052;2022-11-02T03:52:14;93.75;;;34.63;;
65996;SDS011;52765;52.258;21.052;2022-11-02T03:54:57;86.43;;;33.53;;
65996;SDS011;52765;52.258;21.052;2022-11-02T03:57:33;83.90;;;31.88;;
65996;SDS011;52765;52.258;21.052;2022-11-02T04:00:08;97.75;;;34.88;;
65996;SDS011;52765;52.258;21.052;2022-11-02T04:02:36;82.38;;;32.03;;
65996;SDS011;52765;52.258;21.052;2022-11-02T04:05:05;90.03;;;34.60;;
65996;SDS011;52765;52.258;21.052;2022-11-02T04:07:31;95.43;;;34.38;;
65996;SDS011;52765;52.258;21.052;2022-11-02T04:10:18;92.22;;;35.60;;
65996;SDS011;52765;52.258;21.052;2022-11-02T04:12:44;89.93;;;34.05;;
65996;SDS011;52765;52.258;21.052;2022-11-02T04:15:29;94.47;;;35.40;;
65996;SDS011;52765;52.258;21.052;2022-11-02T04:17:54;96.03;;;34.25;;
65996;SDS011;52765;52.258;21.052;2022-11-02T04:20:39;108.57;;;37.97;;
65996;SDS011;52765;52.258;21.052;2022-11-02T04:23:05;97.53;;;36.47;;
65996;SDS011;52765;52.258;21.052;2022-11-02T04:25:53;104.60;;;36.70;;
65996;SDS011;52765;52.258;21.052;2022-11-02T04:28:18;116.00;;;39.33;;
65996;SDS011;52765;52.258;21.052;2022-11-02T04:30:44;99.93;;;36.35;;
65996;SDS011;52765;52.258;21.052;2022-11-02T04:33:10;96.85;;;36.42;;
65996;SDS011;52765;52.258;21.052;2022-11-02T04:35:54;106.82;;;37.85;;
65996;SDS011;52765;52.258;21.052;2022-11-02T04:38:19;107.68;;;39.50;;
65996;SDS011;52765;52.258;21.052;2022-11-02T04:41:10;109.82;;;40.20;;
65996;SDS011;52765;52.258;21.052;2022-11-02T04:43:54;127.53;;;42.55;;
65996;SDS011;52765;52.258;21.052;2022-11-02T04:46:20;113.82;;;40.40;;
65996;SDS011;52765;52.258;21.052;2022-11-02T04:48:47;122.18;;;42.42;;
65996;SDS011;52765;52.258;21.052;2022-11-02T04:51:14;121.97;;;41.22;;
65996;SDS011;52765;52.258;21.052;2022-11-02T04:53:42;122.30;;;40.65;;
65996;SDS011;52765;52.258;21.052;2022-11-02T04:56:10;128.00;;;44.38;;
65996;SDS011;52765;52.258;21.052;2022-11-02T04:58:36;136.88;;;42.67;;
65996;SDS011;52765;52.258;21.052;2022-11-02T05:01:05;134.23;;;44.17;;
65996;SDS011;52765;52.258;21.052;2022-11-02T05:03:31;132.05;;;44.60;;
65996;SDS011;52765;52.258;21.052;2022-11-02T05:05:57;138.63;;;45.60;;
65996;SDS011;52765;52.258;21.052;2022-11-02T05:08:22;127.28;;;44.17;;
65996;SDS011;52765;52.258;21.052;2022-11-02T05:10:48;149.20;;;46.22;;
65996;SDS011;52765;52.258;21.052;2022-11-02T05:13:14;146.13;;;45.45;;
65996;SDS011;52765;52.258;21.052;2022-11-02T05:15:39;118.32;;;42.15;;
65996;SDS011;52765;52.258;21.052;2022-11-02T05:18:05;150.07;;;47.00;;
65996;SDS011;52765;52.258;21.052;2022-11-02T05:20:31;145.55;;;46.60;;
65996;SDS011;52765;52.258;21.052;2022-11-02T05:22:57;139.45;;;46.63;;
65996;SDS011;52765;52.258;21.052;2022-11-02T05:25:22;137.90;;;48.85;;
65996;SDS011;52765;52.258;21.052;2022-11-02T05:27:48;147.70;;;48.15;;
65996;SDS011;52765;52.258;21.052;2022-11-02T05:30:13;149.95;;;46.20;;
65996;SDS011;52765;52.258;21.052;2022-11-02T05:32:39;135.15;;;46.72;;
65996;SDS011;52765;52.258;21.052;2022-11-02T05:35:04;139.15;;;45.83;;
65996;SDS011;52765;52.258;21.052;2022-11-02T05:37:30;142.60;;;44.03;;
65996;SDS011;52765;52.258;21.052;2022-11-02T05:39:56;142.52;;;45.38;;
65996;SDS011;52765;52.258;21.052;2022-11-02T05:42:22;129.90;;;44.17;;
65996;SDS011;52765;52.258;21.052;2022-11-02T05:44:52;135.77;;;44.97;;
65996;SDS011;52765;52.258;21.052;2022-11-02T05:47:18;128.73;;;43.42;;
65996;SDS011;52765;52.258;21.052;2022-11-02T05:49:44;118.75;;;43.85;;
65996;SDS011;52765;52.258;21.052;2022-11-02T05:52:09;117.30;;;44.78;;
65996;SDS011;52765;52.258;21.052;2022-11-02T05:54:35;129.88;;;44.70;;
65996;SDS011;52765;52.258;21.052;2022-11-02T05:57:00;128.63;;;43.95;;
65996;SDS011;52765;52.258;21.052;2022-11-02T05:59:26;128.15;;;45.30;;
65996;SDS011;52765;52.258;21.052;2022-11-02T06:01:51;122.75;;;44.70;;
65996;SDS011;52765;52.258;21.052;2022-11-02T06:04:17;119.18;;;43.50;;
65996;SDS011;52765;52.258;21.052;2022-11-02T06:06:43;111.90;;;42.53;;
65996;SDS011;52765;52.258;21.052;2022-11-02T06:09:09;125.68;;;45.78;;
65996;SDS011;52765;52.258;21.052;2022-11-02T06:11:35;136.20;;;44.55;;
65996;SDS011;52765;52.258;21.052;2022-11-02T06:14:00;120.28;;;42.33;;
65996;SDS011;52765;52.258;21.052;2022-11-02T06:16:27;124.45;;;43.42;;
65996;SDS011;52765;52.258;21.052;2022-11-02T06:18:53;130.48;;;43.63;;
65996;SDS011;52765;52.258;21.052;2022-11-02T06:21:20;129.27;;;43.47;;
65996;SDS011;52765;52.258;21.052;2022-11-02T06:23:48;135.05;;;45.35;;
65996;SDS011;52765;52.258;21.052;2022-11-02T06:26:14;142.90;;;44.92;;
65996;SDS011;52765;52.258;21.052;2022-11-02T06:28:41;141.95;;;43.63;;
65996;SDS011;52765;52.258;21.052;2022-11-02T06:31:07;139.95;;;46.72;;
65996;SDS011;52765;52.258;21.052;2022-11-02T06:33:32;141.55;;;44.03;;
65996;SDS011;52765;52.258;21.052;2022-11-02T06:35:58;130.85;;;42.72;;
65996;SDS011;52765;52.258;21.052;2022-11-02T06:38:23;125.60;;;40.65;;
65996;SDS011;52765;52.258;21.052;2022-11-02T06:40:53;129.20;;;42.60;;
65996;SDS011;52765;52.258;21.052;2022-11-02T06:43:23;120.72;;;40.58;;
65996;SDS011;52765;52.258;21.052;2022-11-02T06:45:49;114.70;;;39.78;;
65996;SDS011;52765;52.258;21.052;2022-11-02T06:48:17;111.95;;;37.67;;
65996;SDS011;52765;52.258;21.052;2022-11-02T06:50:43;84.00;;;31.52;;
65996;SDS011;52765;52.258;21.052;2022-11-02T06:53:08;88.22;;;31.98;;
65996;SDS011;52765;52.258;21.052;2022-11-02T06:55:35;82.85;;;30.92;;
65996;SDS011;52765;52.258;21.052;2022-11-02T06:58:00;93.18;;;33.38;;
65996;SDS011;52765;52.258;21.052;2022-11-02T07:00:26;77.00;;;29.95;;
65996;SDS011;52765;52.258;21.052;2022-11-02T07:03:07;79.38;;;30.50;;
65996;SDS011;52765;52.258;21.052;2022-11-02T07:05:35;78.80;;;29.52;;
65996;SDS011;52765;52.258;21.052;2022-11-02T07:08:01;74.07;;;29.80;;
65996;SDS011;52765;52.258;21.052;2022-11-02T07:10:27;82.85;;;30.40;;
65996;SDS011;52765;52.258;21.052;2022-11-02T07:12:54;80.65;;;29.35;;
65996;SDS011;52765;52.258;21.052;2022-11-02T07:15:21;64.35;;;27.50;;
65996;SDS011;52765;52.258;21.052;2022-11-02T07:17:48;69.70;;;27.23;;
65996;SDS011;52765;52.258;21.052;2022-11-02T07:20:14;65.38;;;26.55;;
65996;SDS011;52765;52.258;21.052;2022-11-02T07:22:40;64.93;;;26.85;;
65996;SDS011;52765;52.258;21.052;2022-11-02T07:25:06;69.85;;;27.05;;
65996;SDS011;52765;52.258;21.052;2022-11-02T07:27:36;65.78;;;25.80;;
65996;SDS011;52765;52.258;21.052;2022-11-02T07:30:03;51.85;;;23.05;;
65996;SDS011;52765;52.258;21.052;2022-11-02T07:32:29;53.65;;;23.55;;
65996;SDS011;52765;52.258;21.052;2022-11-02T07:34:54;45.13;;;21.70;;
65996;SDS011;52765;52.258;21.052;2022-11-02T07:37:20;58.72;;;23.73;;
65996;SDS011;52765;52.258;21.052;2022-11-02T07:39:47;48.72;;;22.42;;
65996;SDS011;52765;52.258;21.052;2022-11-02T07:42:12;54.58;;;22.67;;
65996;SDS011;52765;52.258;21.052;2022-11-02T07:44:38;46.63;;;21.30;;
65996;SDS011;52765;52.258;21.052;2022-11-02T07:47:03;49.63;;;21.90;;
65996;SDS011;52765;52.258;21.052;2022-11-02T07:49:29;44.05;;;21.02;;
65996;SDS011;52765;52.258;21.052;2022-11-02T07:51:55;45.72;;;20.25;;
65996;SDS011;52765;52.258;21.052;2022-11-02T07:54:20;46.75;;;21.98;;
65996;SDS011;52765;52.258;21.052;2022-11-02T07:56:46;45.45;;;21.75;;
65996;SDS011;52765;52.258;21.052;2022-11-02T07:59:11;47.30;;;20.98;;
65996;SDS011;52765;52.258;21.052;2022-11-02T08:01:37;48.33;;;20.10;;
65996;SDS011;52765;52.258;21.052;2022-11-02T08:04:03;50.75;;;21.50;;
65996;SDS011;52765;52.258;21.052;2022-11-02T08:06:28;42.90;;;20.20;;
65996;SDS011;52765;52.258;21.052;2022-11-02T08:08:54;52.33;;;21.83;;
65996;SDS011;52765;52.258;21.052;2022-11-02T08:11:19;41.70;;;19.23;;
65996;SDS011;52765;52.258;21.052;2022-11-02T08:13:46;42.00;;;18.30;;
65996;SDS011;52765;52.258;21.052;2022-11-02T08:16:13;41.15;;;19.60;;
65996;SDS011;52765;52.258;21.052;2022-11-02T08:18:38;44.50;;;19.38;;
65996;SDS011;52765;52.258;21.052;2022-11-02T08:21:05;48.85;;;21.35;;
65996;SDS011;52765;52.258;21.052;2022-11-02T08:23:31;41.10;;;20.42;;
65996;SDS011;52765;52.258;21.052;2022-11-02T08:25:57;43.50;;;21.88;;
65996;SDS011;52765;52.258;21.052;2022-11-02T08:28:26;50.28;;;22.77;;
65996;SDS011;52765;52.258;21.052;2022-11-02T08:30:56;45.35;;;21.73;;
65996;SDS011;52765;52.258;21.052;2022-11-02T08:33:23;44.42;;;20.90;;
65996;SDS011;52765;52.258;21.052;2022-11-02T08:35:48;50.83;;;21.75;;
65996;SDS011;52765;52.258;21.052;2022-11-02T08:38:14;42.05;;;20.65;;
65996;SDS011;52765;52.258;21.052;2022-11-02T08:40:41;47.25;;;21.05;;
65996;SDS011;52765;52.258;21.052;2022-11-02T08:43:07;45.63;;;18.90;;
65996;SDS011;52765;52.258;21.052;2022-11-02T08:45:35;41.08;;;19.17;;
65996;SDS011;52765;52.258;21.052;2022-11-02T08:48:02;43.33;;;19.90;;
65996;SDS011;52765;52.258;21.052;2022-11-02T08:50:29;39.78;;;19.10;;
65996;SDS011;52765;52.258;21.052;2022-11-02T08:52:54;47.20;;;19.58;;
65996;SDS011;52765;52.258;21.052;2022-11-02T08:55:20;53.70;;;22.58;;
65996;SDS011;52765;52.258;21.052;2022-11-02T08:57:46;39.75;;;20.80;;
65996;SDS011;52765;52.258;21.052;2022-11-02T09:00:13;49.00;;;20.98;;
65996;SDS011;52765;52.258;21.052;2022-11-02T09:02:40;35.42;;;18.50;;
65996;SDS011;52765;52.258;21.052;2022-11-02T09:05:08;41.03;;;20.33;;
65996;SDS011;52765;52.258;21.052;2022-11-02T09:07:36;34.15;;;18.23;;
65996;SDS011;52765;52.258;21.052;2022-11-02T09:10:02;36.70;;;18.73;;
65996;SDS011;52765;52.258;21.052;2022-11-02T09:12:28;33.45;;;17.50;;
65996;SDS011;52765;52.258;21.052;2022-11-02T09:14:54;40.20;;;20.65;;
65996;SDS011;52765;52.258;21.052;2022-11-02T09:17:19;40.88;;;19.90;;
65996;SDS011;52765;52.258;21.052;2022-11-02T09:19:45;44.53;;;21.55;;
65996;SDS011;52765;52.258;21.052;2022-11-02T09:22:10;42.42;;;21.58;;
65996;SDS011;52765;52.258;21.052;2022-11-02T09:24:35;39.88;;;21.30;;
65996;SDS011;52765;52.258;21.052;2022-11-02T09:27:01;43.13;;;21.45;;
65996;SDS011;52765;52.258;21.052;2022-11-02T09:29:27;33.42;;;20.25;;
65996;SDS011;52765;52.258;21.052;2022-11-02T09:31:52;37.75;;;21.33;;
65996;SDS011;52765;52.258;21.052;2022-11-02T09:34:18;45.72;;;23.42;;
65996;SDS011;52765;52.258;21.052;2022-11-02T09:36:45;46.70;;;23.77;;
65996;SDS011;52765;52.258;21.052;2022-11-02T09:39:10;44.85;;;23.42;;
65996;SDS011;52765;52.258;21.052;2022-11-02T09:41:38;44.47;;;23.13;;
65996;SDS011;52765;52.258;21.052;2022-11-02T09:46:48;44.67;;;23.35;;
65996;SDS011;52765;52.258;21.052;2022-11-02T09:49:15;40.47;;;22.35;;
65996;SDS011;52765;52.258;21.052;2022-11-02T09:51:47;43.75;;;23.02;;
65996;SDS011;52765;52.258;21.052;2022-11-02T09:56:57;38.50;;;21.42;;
65996;SDS011;52765;52.258;21.052;2022-11-02T09:59:27;47.03;;;20.60;;
65996;SDS011;52765;52.258;21.052;2022-11-02T10:07:28;32.83;;;16.90;;
65996;SDS011;52765;52.258;21.052;2022-11-02T10:15:52;36.42;;;19.95;;
65996;SDS011;52765;52.258;21.052;2022-11-02T10:18:23;38.70;;;18.05;;
65996;SDS011;52765;52.258;21.052;2022-11-02T10:23:54;42.60;;;19.48;;
65996;SDS011;52765;52.258;21.052;2022-11-02T10:26:27;42.55;;;21.40;;
65996;SDS011;52765;52.258;21.052;2022-11-02T10:28:57;42.40;;;20.67;;
65996;SDS011;52765;52.258;21.052;2022-11-02T10:31:27;38.35;;;18.35;;
65996;SDS011;52765;52.258;21.052;2022-11-02T10:33:56;44.85;;;19.73;;
65996;SDS011;52765;52.258;21.052;2022-11-02T10:45:40;39.42;;;19.15;;
65996;SDS011;52765;52.258;21.052;2022-11-02T10:51:13;39.47;;;18.95;;
65996;SDS011;52765;52.258;21.052;2022-11-02T10:53:59;36.90;;;19.35;;
65996;SDS011;52765;52.258;21.052;2022-11-02T10:56:29;39.05;;;19.85;;
65996;SDS011;52765;52.258;21.052;2022-11-02T10:58:58;35.53;;;18.88;;
65996;SDS011;52765;52.258;21.052;2022-11-02T11:01:34;41.42;;;19.20;;
65996;SDS011;52765;52.258;21.052;2022-11-02T11:04:03;43.40;;;18.92;;
65996;SDS011;52765;52.258;21.052;2022-11-02T11:06:36;41.50;;;19.95;;
65996;SDS011;52765;52.258;21.052;2022-11-02T11:11:51;39.10;;;18.77;;
65996;SDS011;52765;52.258;21.052;2022-11-02T11:14:25;33.35;;;17.08;;
65996;SDS011;52765;52.258;21.052;2022-11-02T11:16:57;36.22;;;17.67;;
65996;SDS011;52765;52.258;21.052;2022-11-02T11:22:22;36.00;;;17.45;;
65996;SDS011;52765;52.258;21.052;2022-11-02T11:24:51;37.72;;;17.23;;
65996;SDS011;52765;52.258;21.052;2022-11-02T11:27:18;33.00;;;16.13;;
65996;SDS011;52765;52.258;21.052;2022-11-02T11:29:49;33.58;;;16.83;;
65996;SDS011;52765;52.258;21.052;2022-11-02T11:32:18;32.72;;;15.82;;
65996;SDS011;52765;52.258;21.052;2022-11-02T11:34:57;29.58;;;16.08;;
65996;SDS011;52765;52.258;21.052;2022-11-02T11:37:27;29.27;;;16.70;;
65996;SDS011;52765;52.258;21.052;2022-11-02T11:39:55;30.02;;;16.35;;
65996;SDS011;52765;52.258;21.052;2022-11-02T11:42:24;30.52;;;16.23;;
65996;SDS011;52765;52.258;21.052;2022-11-02T11:47:42;23.83;;;14.57;;
65996;SDS011;52765;52.258;21.052;2022-11-02T11:50:13;23.95;;;13.35;;
65996;SDS011;52765;52.258;21.052;2022-11-02T11:52:41;25.10;;;13.10;;
65996;SDS011;52765;52.258;21.052;2022-11-02T12:03:32;24.05;;;12.77;;
65996;SDS011;52765;52.258;21.052;2022-11-02T12:06:22;28.65;;;13.90;;
65996;SDS011;52765;52.258;21.052;2022-11-02T12:11:46;27.60;;;13.23;;
65996;SDS011;52765;52.258;21.052;2022-11-02T12:23:07;23.33;;;13.20;;
65996;SDS011;52765;52.258;21.052;2022-11-02T12:30:53;27.45;;;13.45;;
65996;SDS011;52765;52.258;21.052;2022-11-02T12:38:45;23.20;;;14.68;;
65996;SDS011;52765;52.258;21.052;2022-11-02T12:44:35;20.08;;;12.82;;
65996;SDS011;52765;52.258;21.052;2022-11-02T12:47:11;25.40;;;13.73;;
65996;SDS011;52765;52.258;21.052;2022-11-02T12:55:55;25.65;;;13.88;;
65996;SDS011;52765;52.258;21.052;2022-11-02T12:58:25;22.55;;;14.55;;
65996;SDS011;52765;52.258;21.052;2022-11-02T13:00:54;22.80;;;12.50;;
65996;SDS011;52765;52.258;21.052;2022-11-02T13:03:27;25.65;;;13.85;;
65996;SDS011;52765;52.258;21.052;2022-11-02T13:05:55;27.13;;;14.13;;
65996;SDS011;52765;52.258;21.052;2022-11-02T13:08:33;20.48;;;12.60;;
65996;SDS011;52765;52.258;21.052;2022-11-02T13:11:04;25.17;;;14.02;;
65996;SDS011;52765;52.258;21.052;2022-11-02T13:13:46;21.27;;;13.23;;
65996;SDS011;52765;52.258;21.052;2022-11-02T13:16:16;23.88;;;13.93;;
65996;SDS011;52765;52.258;21.052;2022-11-02T13:18:49;26.67;;;14.18;;
65996;SDS011;52765;52.258;21.052;2022-11-02T13:21:22;22.73;;;13.02;;
65996;SDS011;52765;52.258;21.052;2022-11-02T13:23:57;23.98;;;12.32;;
65996;SDS011;52765;52.258;21.052;2022-11-02T13:26:28;21.98;;;13.38;;
65996;SDS011;52765;52.258;21.052;2022-11-02T13:29:01;18.87;;;11.93;;
65996;SDS011;52765;52.258;21.052;2022-11-02T13:31:36;20.58;;;12.10;;
65996;SDS011;52765;52.258;21.052;2022-11-02T13:34:09;24.17;;;13.45;;
65996;SDS011;52765;52.258;21.052;2022-11-02T13:36:39;23.83;;;12.98;;
65996;SDS011;52765;52.258;21.052;2022-11-02T13:39:15;22.25;;;12.27;;
65996;SDS011;52765;52.258;21.052;2022-11-02T13:50:11;25.30;;;12.65;;
65996;SDS011;52765;52.258;21.052;2022-11-02T13:52:44;22.67;;;11.90;;
65996;SDS011;52765;52.258;21.052;2022-11-02T13:55:20;22.95;;;12.45;;
65996;SDS011;52765;52.258;21.052;2022-11-02T14:02:50;25.98;;;14.40;;
65996;SDS011;52765;52.258;21.052;2022-11-02T14:05:26;25.30;;;14.93;;
65996;SDS011;52765;52.258;21.052;2022-11-02T14:08:03;32.50;;;15.23;;
65996;SDS011;52765;52.258;21.052;2022-11-02T14:10:36;26.60;;;13.07;;
65996;SDS011;52765;52.258;21.052;2022-11-02T14:13:04;28.52;;;14.32;;
65996;SDS011;52765;52.258;21.052;2022-11-02T14:18:00;26.17;;;15.10;;
65996;SDS011;52765;52.258;21.052;2022-11-02T14:20:36;27.80;;;15.68;;
65996;SDS011;52765;52.258;21.052;2022-11-02T14:25:46;29.85;;;15.38;;
65996;SDS011;52765;52.258;21.052;2022-11-02T14:30:48;29.23;;;15.93;;
65996;SDS011;52765;52.258;21.052;2022-11-02T14:35:59;26.48;;;16.05;;
65996;SDS011;52765;52.258;21.052;2022-11-02T14:46:55;30.65;;;16.48;;
65996;SDS011;52765;52.258;21.052;2022-11-02T14:49:29;28.92;;;16.63;;
65996;SDS011;52765;52.258;21.052;2022-11-02T14:51:59;27.05;;;15.68;;
65996;SDS011;52765;52.258;21.052;2022-11-02T14:54:26;38.63;;;19.00;;
65996;SDS011;52765;52.258;21.052;2022-11-02T14:57:00;30.08;;;17.15;;
65996;SDS011;52765;52.258;21.052;2022-11-02T14:59:37;35.38;;;18.00;;
65996;SDS011;52765;52.258;21.052;2022-11-02T15:02:06;34.00;;;18.27;;
65996;SDS011;52765;52.258;21.052;2022-11-02T15:04:47;38.03;;;19.00;;
65996;SDS011;52765;52.258;21.052;2022-11-02T15:07:20;40.95;;;19.30;;
65996;SDS011;52765;52.258;21.052;2022-11-02T15:09:55;33.45;;;18.80;;
65996;SDS011;52765;52.258;21.052;2022-11-02T15:12:29;35.53;;;18.67;;
65996;SDS011;52765;52.258;21.052;2022-11-02T15:25:38;32.13;;;18.50;;
65996;SDS011;52765;52.258;21.052;2022-11-02T15:28:10;31.27;;;18.33;;
65996;SDS011;52765;52.258;21.052;2022-11-02T15:30:43;30.10;;;16.85;;
65996;SDS011;52765;52.258;21.052;2022-11-02T15:33:15;30.02;;;16.40;;
65996;SDS011;52765;52.258;21.052;2022-11-02T15:36:04;30.10;;;16.65;;
65996;SDS011;52765;52.258;21.052;2022-11-02T15:38:41;29.67;;;17.02;;
65996;SDS011;52765;52.258;21.052;2022-11-02T15:47:24;39.95;;;19.13;;
65996;SDS011;52765;52.258;21.052;2022-11-02T15:57:46;31.13;;;17.23;;
65996;SDS011;52765;52.258;21.052;2022-11-02T16:00:29;29.90;;;18.08;;
65996;SDS011;52765;52.258;21.052;2022-11-02T16:02:59;33.75;;;19.02;;
65996;SDS011;52765;52.258;21.052;2022-11-02T16:05:28;29.23;;;16.95;;
65996;SDS011;52765;52.258;21.052;2022-11-02T16:08:00;37.22;;;18.80;;
65996;SDS011;52765;52.258;21.052;2022-11-02T16:10:30;36.90;;;19.13;;
65996;SDS011;52765;52.258;21.052;2022-11-02T16:13:15;39.53;;;19.75;;
65996;SDS011;52765;52.258;21.052;2022-11-02T16:18:26;32.15;;;19.15;;
65996;SDS011;52765;52.258;21.052;2022-11-02T16:20:54;32.38;;;19.08;;
65996;SDS011;52765;52.258;21.052;2022-11-02T16:23:25;42.30;;;20.88;;
65996;SDS011;52765;52.258;21.052;2022-11-02T16:25:53;37.13;;;21.27;;
65996;SDS011;52765;52.258;21.052;2022-11-02T16:28:31;33.25;;;20.02;;
65996;SDS011;52765;52.258;21.052;2022-11-02T16:31:02;35.38;;;21.27;;
65996;SDS011;52765;52.258;21.052;2022-11-02T16:33:39;38.75;;;21.15;;
65996;SDS011;52765;52.258;21.052;2022-11-02T16:36:08;42.03;;;21.65;;
65996;SDS011;52765;52.258;21.052;2022-11-02T16:38:36;41.70;;;22.00;;
65996;SDS011;52765;52.258;21.052;2022-11-02T16:41:03;39.55;;;20.08;;
65996;SDS011;52765;52.258;21.052;2022-11-02T16:43:32;42.50;;;21.80;;
65996;SDS011;52765;52.258;21.052;2022-11-02T16:46:00;41.63;;;22.15;;
65996;SDS011;52765;52.258;21.052;2022-11-02T16:48:29;29.20;;;17.38;;
65996;SDS011;52765;52.258;21.052;2022-11-02T16:51:03;37.85;;;20.40;;
65996;SDS011;52765;52.258;21.052;2022-11-02T16:53:38;38.67;;;19.35;;
65996;SDS011;52765;52.258;21.052;2022-11-02T16:56:15;33.88;;;17.73;;
65996;SDS011;52765;52.258;21.052;2022-11-02T16:58:47;30.00;;;16.00;;
65996;SDS011;52765;52.258;21.052;2022-11-02T17:01:22;31.02;;;16.25;;
65996;SDS011;52765;52.258;21.052;2022-11-02T17:03:49;31.13;;;15.73;;
65996;SDS011;52765;52.258;21.052;2022-11-02T17:06:19;35.35;;;15.65;;
65996;SDS011;52765;52.258;21.052;2022-11-02T17:08:53;31.45;;;15.18;;